createdAt,value
2023-01-13T00:01:26.101Z,5.66
2023-01-13T00:03:53.810Z,5.44
2023-01-13T00:06:25.827Z,5.48
2023-01-13T00:08:54.553Z,5.35
2023-01-13T00:11:22.483Z,5.32
2023-01-13T00:13:49.952Z,5.13
2023-01-13T00:16:19.101Z,5.30
2023-01-13T00:18:47.342Z,5.11
2023-01-13T00:21:20.686Z,5.25
2023-01-13T00:23:48.492Z,5.51
2023-01-13T00:26:23.658Z,5.52
2023-01-13T00:28:51.446Z,5.53
2023-01-13T00:31:21.352Z,5.69
2023-01-13T00:33:51.934Z,5.76
2023-01-13T00:36:20.872Z,5.74
2023-01-13T00:38:48.884Z,5.73
2023-01-13T00:41:24.102Z,5.69
2023-01-13T00:43:51.537Z,5.63
2023-01-13T00:46:21.438Z,5.48
2023-01-13T00:48:49.761Z,5.43
2023-01-13T00:51:20.114Z,5.45
2023-01-13T00:53:50.566Z,5.58
2023-01-13T00:56:34.074Z,5.49
2023-01-13T00:59:10.069Z,5.41
2023-01-13T01:01:38.166Z,5.34
2023-01-13T01:04:06.770Z,5.39
2023-01-13T01:06:34.464Z,5.45
2023-01-13T01:09:02.555Z,5.34
2023-01-13T01:11:32.023Z,5.33
2023-01-13T01:14:02.468Z,5.24
2023-01-13T01:16:31.876Z,5.13
2023-01-13T01:19:00.463Z,5.05
2023-01-13T01:21:29.028Z,5.09
2023-01-13T01:24:00.271Z,5.15
2023-01-13T01:26:29.705Z,5.31
2023-01-13T01:28:58.020Z,5.37
2023-01-13T01:31:31.548Z,5.31
2023-01-13T01:34:00.596Z,5.44
2023-01-13T01:36:32.247Z,5.37
2023-01-13T01:39:00.253Z,5.40
2023-01-13T01:41:31.763Z,5.42
2023-01-13T01:44:24.247Z,5.34
2023-01-13T01:46:52.408Z,5.08
2023-01-13T01:49:24.669Z,5.04
2023-01-13T01:51:54.294Z,5.08
2023-01-13T01:54:28.784Z,5.07
2023-01-13T01:56:56.567Z,5.01
2023-01-13T01:59:32.170Z,5.06
2023-01-13T02:02:00.650Z,4.97
2023-01-13T02:04:32.881Z,5.03
2023-01-13T02:07:02.430Z,5.24
2023-01-13T02:09:30.555Z,5.14
2023-01-13T02:12:16.920Z,5.34
2023-01-13T02:14:45.961Z,5.25
2023-01-13T02:17:41.141Z,5.22
2023-01-13T02:20:20.531Z,5.19
2023-01-13T02:23:35.451Z,5.15
2023-01-13T02:26:25.406Z,5.31
2023-01-13T02:29:17.767Z,5.30
2023-01-13T02:31:48.856Z,5.18
2023-01-13T02:34:29.813Z,5.21
2023-01-13T02:37:08.548Z,5.37
2023-01-13T02:39:49.162Z,5.42
2023-01-13T02:42:54.389Z,5.32
2023-01-13T02:45:30.451Z,5.40
2023-01-13T02:48:01.962Z,5.37
2023-01-13T02:50:36.043Z,5.22
2023-01-13T02:53:23.084Z,5.22
2023-01-13T02:55:54.326Z,5.10
2023-01-13T02:58:26.884Z,5.20
2023-01-13T03:00:55.484Z,5.25
2023-01-13T03:03:23.630Z,4.97
2023-01-13T03:05:59.851Z,4.68
2023-01-13T03:08:49.253Z,4.83
2023-01-13T03:11:19.197Z,5.14
2023-01-13T03:14:05.566Z,5.15
2023-01-13T03:16:53.665Z,5.22
2023-01-13T03:19:31.277Z,5.06
2023-01-13T03:22:18.241Z,5.23
2023-01-13T03:25:02.789Z,5.14
2023-01-13T03:27:44.191Z,4.99
2023-01-13T03:30:32.849Z,4.92
2023-01-13T03:33:07.090Z,4.87
2023-01-13T03:35:40.454Z,4.86
2023-01-13T03:38:30.148Z,4.82
2023-01-13T03:41:01.796Z,4.81
2023-01-13T03:43:53.945Z,4.87
2023-01-13T03:46:52.059Z,4.89
2023-01-13T03:49:24.161Z,4.88
2023-01-13T03:52:02.091Z,4.75
2023-01-13T03:54:33.007Z,4.32
2023-01-13T03:57:10.722Z,4.31
2023-01-13T03:59:44.360Z,4.50
2023-01-13T04:02:27.427Z,4.58
2023-01-13T04:05:03.026Z,3.84
2023-01-13T04:07:40.620Z,4.50
2023-01-13T04:10:10.419Z,4.68
2023-01-13T04:13:06.899Z,4.70
2023-01-13T04:15:45.262Z,4.51
2023-01-13T04:18:23.848Z,4.56
2023-01-13T04:20:54.031Z,4.48
2023-01-13T04:23:22.972Z,4.57
2023-01-13T04:25:53.741Z,4.52
2023-01-13T04:28:21.947Z,4.40
2023-01-13T04:30:49.844Z,3.91
2023-01-13T04:33:19.155Z,4.18
2023-01-13T04:35:48.010Z,4.33
2023-01-13T04:38:18.080Z,4.45
2023-01-13T04:40:45.719Z,4.35
2023-01-13T04:43:13.639Z,4.49
2023-01-13T04:45:42.569Z,4.63
2023-01-13T04:48:10.669Z,4.58
2023-01-13T04:50:38.388Z,4.72
2023-01-13T04:53:06.132Z,4.62
2023-01-13T04:55:33.792Z,4.65
2023-01-13T04:58:05.973Z,4.65
2023-01-13T05:00:33.904Z,4.80
2023-01-13T05:03:01.671Z,4.92
2023-01-13T05:05:31.020Z,4.86
2023-01-13T05:07:58.564Z,4.83
2023-01-13T05:10:27.420Z,4.33
2023-01-13T05:13:13.830Z,4.30
2023-01-13T05:16:01.007Z,4.19
2023-01-13T05:18:29.914Z,4.45
2023-01-13T05:20:58.172Z,4.55
2023-01-13T05:23:44.267Z,4.75
2023-01-13T05:26:11.683Z,4.74
2023-01-13T05:28:39.154Z,4.60
2023-01-13T05:31:06.729Z,4.65
2023-01-13T05:33:36.123Z,4.68
2023-01-13T05:36:04.445Z,4.68
2023-01-13T05:38:32.129Z,4.54
2023-01-13T05:41:18.983Z,4.53
2023-01-13T05:43:49.301Z,4.76
2023-01-13T05:46:17.924Z,4.88
2023-01-13T05:48:45.791Z,5.03
2023-01-13T05:51:14.464Z,5.08
2023-01-13T05:53:42.149Z,5.18
2023-01-13T05:56:10.807Z,5.03
2023-01-13T05:58:38.784Z,4.84
2023-01-13T06:01:08.733Z,4.20
2023-01-13T06:03:37.529Z,4.42
2023-01-13T06:06:05.055Z,4.78
2023-01-13T06:08:32.917Z,4.77
2023-01-13T06:11:00.433Z,4.77
2023-01-13T06:13:28.267Z,4.88
2023-01-13T06:15:57.796Z,4.84
2023-01-13T06:18:26.514Z,4.58
2023-01-13T06:20:54.094Z,4.73
2023-01-13T06:23:21.720Z,4.61
2023-01-13T06:26:20.275Z,4.82
2023-01-13T06:28:47.904Z,4.98
2023-01-13T06:31:33.687Z,4.86
2023-01-13T06:34:14.719Z,4.84
2023-01-13T06:36:47.901Z,4.97
2023-01-13T06:39:19.251Z,4.98
2023-01-13T06:42:07.633Z,4.90
2023-01-13T06:44:35.334Z,4.90
2023-01-13T06:47:03.283Z,4.85
2023-01-13T06:49:30.754Z,4.75
2023-01-13T06:51:58.222Z,4.39
2023-01-13T06:54:27.695Z,4.54
2023-01-13T06:56:55.233Z,4.57
2023-01-13T06:59:22.904Z,4.09
2023-01-13T07:01:50.427Z,4.17
2023-01-13T07:04:18.952Z,4.40
2023-01-13T07:06:46.376Z,4.24
2023-01-13T07:09:13.810Z,4.36
2023-01-13T07:11:41.251Z,4.40
2023-01-13T07:14:27.640Z,4.62
2023-01-13T07:16:55.147Z,4.75
2023-01-13T07:19:24.093Z,4.69
2023-01-13T07:21:52.801Z,4.74
2023-01-13T07:24:20.943Z,4.75
2023-01-13T07:26:48.634Z,4.74
2023-01-13T07:29:16.117Z,4.40
2023-01-13T07:31:43.663Z,4.34
2023-01-13T07:34:11.180Z,4.29
2023-01-13T07:36:39.387Z,4.52
2023-01-13T07:39:06.902Z,4.64
2023-01-13T07:41:52.780Z,4.78
2023-01-13T07:44:20.156Z,4.88
2023-01-13T07:46:47.603Z,4.96
2023-01-13T07:49:15.155Z,5.14
2023-01-13T07:51:42.825Z,5.22
2023-01-13T07:54:10.269Z,5.17
2023-01-13T07:56:37.724Z,5.20
2023-01-13T07:59:05.245Z,5.23
2023-01-13T08:01:32.792Z,5.13
2023-01-13T08:04:00.388Z,5.30
2023-01-13T08:06:27.963Z,5.46
2023-01-13T08:08:55.512Z,5.49
2023-01-13T08:11:23.735Z,5.62
2023-01-13T08:13:55.773Z,5.88
2023-01-13T08:16:24.422Z,5.98
2023-01-13T08:18:52.056Z,6.02
2023-01-13T08:21:19.840Z,6.23
2023-01-13T08:23:47.635Z,6.35
2023-01-13T08:26:17.846Z,6.44
2023-01-13T08:28:45.923Z,6.55
2023-01-13T08:31:16.524Z,6.75
2023-01-13T08:33:44.309Z,6.73
2023-01-13T08:36:12.702Z,6.82
2023-01-13T08:38:41.202Z,6.94
2023-01-13T08:41:11.368Z,7.05
2023-01-13T08:43:38.906Z,6.71
2023-01-13T08:46:06.732Z,6.89
2023-01-13T08:48:34.574Z,7.05
2023-01-13T08:51:07.014Z,7.05
2023-01-13T08:53:34.929Z,7.14
2023-01-13T08:56:02.454Z,7.29
2023-01-13T08:58:29.980Z,7.32
2023-01-13T09:00:57.638Z,7.25
2023-01-13T09:03:25.221Z,7.37
2023-01-13T09:05:52.735Z,7.55
2023-01-13T09:08:20.489Z,7.54
2023-01-13T09:10:48.024Z,7.98
2023-01-13T09:13:17.186Z,7.94
2023-01-13T09:15:46.211Z,8.04
2023-01-13T09:18:13.750Z,8.08
2023-01-13T09:20:41.576Z,7.93
2023-01-13T09:23:10.908Z,8.24
2023-01-13T09:25:39.732Z,8.17
2023-01-13T09:28:08.637Z,8.60
2023-01-13T09:30:37.150Z,8.18
2023-01-13T09:33:23.572Z,8.17
2023-01-13T09:35:51.171Z,8.29
2023-01-13T09:38:18.629Z,8.45
2023-01-13T09:40:49.071Z,8.73
2023-01-13T09:43:40.467Z,8.65
2023-01-13T09:46:40.175Z,8.60
2023-01-13T09:49:20.487Z,8.52
2023-01-13T09:51:58.693Z,8.81
2023-01-13T09:54:33.711Z,8.67
2023-01-13T09:57:01.431Z,8.55
2023-01-13T09:59:34.758Z,8.54
2023-01-13T10:02:04.901Z,8.63
2023-01-13T10:04:32.417Z,8.62
2023-01-13T10:07:03.744Z,8.64
2023-01-13T10:09:53.355Z,8.16
2023-01-13T10:12:43.247Z,8.46
2023-01-13T10:15:21.473Z,8.82
2023-01-13T10:17:56.662Z,8.81
2023-01-13T10:20:36.247Z,8.75
2023-01-13T10:23:18.637Z,8.05
2023-01-13T10:25:48.950Z,8.16
2023-01-13T10:28:20.220Z,8.57
2023-01-13T10:30:48.001Z,8.51
2023-01-13T10:33:22.040Z,8.62
2023-01-13T10:35:59.693Z,8.79
2023-01-13T10:38:38.925Z,8.82
2023-01-13T10:41:12.223Z,8.66
2023-01-13T10:43:39.877Z,8.47
2023-01-13T10:46:11.944Z,8.55
2023-01-13T10:48:40.986Z,8.65
2023-01-13T10:51:14.230Z,8.49
2023-01-13T10:54:11.590Z,8.45
2023-01-13T10:56:41.364Z,8.45
2023-01-13T10:59:26.981Z,8.45
2023-01-13T11:02:13.267Z,8.58
2023-01-13T11:04:53.036Z,8.75
2023-01-13T11:07:32.093Z,8.90
2023-01-13T11:10:21.089Z,9.07
2023-01-13T11:12:54.533Z,9.13
2023-01-13T11:15:28.755Z,9.05
2023-01-13T11:18:00.864Z,9.15
2023-01-13T11:20:33.832Z,9.13
2023-01-13T11:23:08.481Z,8.95
2023-01-13T11:25:43.607Z,9.06
2023-01-13T11:28:29.503Z,9.23
2023-01-13T11:31:01.882Z,9.17
2023-01-13T11:33:36.795Z,9.01
2023-01-13T11:36:28.851Z,9.13
2023-01-13T11:39:02.199Z,9.48
2023-01-13T11:41:38.367Z,9.32
2023-01-13T11:44:14.663Z,9.45
2023-01-13T11:46:42.340Z,9.53
2023-01-13T11:49:33.775Z,9.56
2023-01-13T11:52:14.698Z,9.77
2023-01-13T11:54:54.517Z,9.85
2023-01-13T11:57:34.585Z,9.68
2023-01-13T12:00:07.724Z,9.78
2023-01-13T12:03:00.739Z,9.61
2023-01-13T12:05:42.464Z,9.82
2023-01-13T12:08:11.086Z,9.95
2023-01-13T12:11:19.118Z,9.75
2023-01-13T12:14:19.668Z,9.29
2023-01-13T12:16:49.804Z,9.58
2023-01-13T12:19:28.203Z,9.54
2023-01-13T12:22:02.393Z,9.76
2023-01-13T12:24:30.152Z,10.01
2023-01-13T12:27:01.682Z,9.98
2023-01-13T12:29:33.247Z,9.93
2023-01-13T12:32:03.890Z,10.00
2023-01-13T12:34:31.400Z,9.92
2023-01-13T12:37:16.599Z,10.08
2023-01-13T12:40:00.142Z,10.11
2023-01-13T12:42:51.370Z,9.65
2023-01-13T12:45:28.489Z,10.02
2023-01-13T12:47:56.839Z,10.07
2023-01-13T12:50:24.834Z,10.25
2023-01-13T12:53:00.194Z,10.47
2023-01-13T12:55:31.269Z,10.55
2023-01-13T12:58:04.615Z,10.53
2023-01-13T13:00:40.955Z,10.54
2023-01-13T13:03:11.040Z,10.50
2023-01-13T13:06:02.678Z,10.32
2023-01-13T13:08:48.659Z,10.48
2023-01-13T13:11:42.262Z,10.57
2023-01-13T13:14:14.203Z,10.43
2023-01-13T13:16:47.466Z,10.51
2023-01-13T13:19:17.671Z,10.49
2023-01-13T13:22:06.750Z,10.25
2023-01-13T13:24:36.810Z,10.37
2023-01-13T13:27:17.894Z,10.52
2023-01-13T13:30:22.928Z,10.62
2023-01-13T13:33:06.222Z,10.66
2023-01-13T13:36:00.369Z,10.29
2023-01-13T13:39:14.016Z,10.47
2023-01-13T13:42:04.065Z,10.18
2023-01-13T13:44:59.376Z,10.46
2023-01-13T13:47:38.715Z,10.51
2023-01-13T13:50:23.895Z,10.40
2023-01-13T13:53:05.384Z,10.47
2023-01-13T13:55:33.263Z,10.65
2023-01-13T13:58:01.733Z,10.65
2023-01-13T14:00:33.107Z,10.57
2023-01-13T14:03:04.104Z,10.46
2023-01-13T14:05:33.860Z,10.60
2023-01-13T14:08:10.603Z,10.54
2023-01-13T14:10:40.172Z,10.63
2023-01-13T14:13:26.577Z,10.79
2023-01-13T14:15:59.858Z,10.88
2023-01-13T14:18:29.936Z,10.83
2023-01-13T14:21:16.707Z,10.82
2023-01-13T14:23:53.485Z,10.61
2023-01-13T14:26:28.583Z,10.80
2023-01-13T14:29:04.193Z,10.96
2023-01-13T14:31:32.775Z,11.05
2023-01-13T14:34:32.658Z,11.16
2023-01-13T14:36:51.520Z,11.21
2023-01-13T14:39:19.008Z,11.33
2023-01-13T14:41:49.066Z,11.41
2023-01-13T14:44:34.276Z,11.32
2023-01-13T14:47:19.952Z,11.09
2023-01-13T14:50:03.241Z,10.81
2023-01-13T14:52:45.064Z,10.66
2023-01-13T14:55:28.560Z,10.78
2023-01-13T14:58:17.613Z,10.61
2023-01-13T15:00:45.121Z,10.26
2023-01-13T15:03:20.725Z,10.19
2023-01-13T15:05:52.787Z,10.02
2023-01-13T15:08:27.915Z,10.09
2023-01-13T15:11:01.064Z,10.05
2023-01-13T15:13:37.500Z,9.98
2023-01-13T15:16:21.198Z,9.79
2023-01-13T15:18:48.909Z,9.65
2023-01-13T15:21:17.373Z,9.52
2023-01-13T15:23:47.231Z,9.38
2023-01-13T15:26:19.963Z,9.27
2023-01-13T15:28:48.031Z,9.26
2023-01-13T15:31:16.039Z,9.08
2023-01-13T15:33:44.158Z,9.00
2023-01-13T15:36:35.497Z,8.88
2023-01-13T15:39:03.695Z,8.72
2023-01-13T15:41:49.926Z,8.61
2023-01-13T15:44:36.152Z,8.61
2023-01-13T15:47:07.433Z,8.54
2023-01-13T15:49:40.908Z,8.54
2023-01-13T15:52:29.458Z,8.14
2023-01-13T15:55:06.484Z,8.06
2023-01-13T15:57:36.865Z,8.01
2023-01-13T16:00:16.312Z,7.99
2023-01-13T16:02:44.563Z,7.64
2023-01-13T16:05:12.870Z,7.83
2023-01-13T16:07:40.652Z,7.65
2023-01-13T16:10:16.803Z,7.60
2023-01-13T16:12:46.177Z,7.72
2023-01-13T16:15:21.408Z,7.49
2023-01-13T16:17:58.583Z,7.27
2023-01-13T16:20:26.900Z,7.18
2023-01-13T16:22:54.375Z,7.07
2023-01-13T16:25:27.190Z,7.00
2023-01-13T16:27:54.730Z,7.02
2023-01-13T16:30:37.603Z,6.98
2023-01-13T16:33:05.204Z,6.81
2023-01-13T16:35:32.955Z,7.02
2023-01-13T16:38:01.124Z,6.78
2023-01-13T16:40:33.464Z,6.71
2023-01-13T16:43:03.718Z,6.82
2023-01-13T16:45:32.570Z,6.65
2023-01-13T16:48:03.499Z,6.78
2023-01-13T16:50:37.083Z,6.74
2023-01-13T16:53:04.747Z,6.75
2023-01-13T16:55:32.761Z,6.89
2023-01-13T16:58:00.264Z,6.79
2023-01-13T17:00:27.917Z,6.54
2023-01-13T17:02:55.460Z,6.43
2023-01-13T17:05:22.870Z,6.62
2023-01-13T17:07:50.606Z,6.68
2023-01-13T17:10:21.376Z,6.47
2023-01-13T17:12:48.977Z,6.56
2023-01-13T17:15:18.374Z,6.49
2023-01-13T17:17:52.007Z,6.49
2023-01-13T17:20:19.681Z,6.55
2023-01-13T17:22:49.789Z,6.54
2023-01-13T17:25:22.335Z,6.34
2023-01-13T17:27:49.928Z,6.41
2023-01-13T17:30:20.892Z,6.28
2023-01-13T17:32:48.509Z,6.25
2023-01-13T17:35:19.064Z,6.16
2023-01-13T17:37:46.930Z,5.92
2023-01-13T17:40:14.682Z,5.82
2023-01-13T17:42:42.179Z,5.91
2023-01-13T17:45:12.169Z,5.78
2023-01-13T17:47:42.104Z,5.86
2023-01-13T17:50:10.242Z,5.93
2023-01-13T17:52:37.687Z,5.99
2023-01-13T17:55:05.415Z,5.97
2023-01-13T17:57:34.885Z,6.07
2023-01-13T18:00:04.232Z,6.04
2023-01-13T18:02:39.688Z,5.85
2023-01-13T18:05:07.589Z,5.73
2023-01-13T18:07:34.967Z,5.32
2023-01-13T18:10:02.417Z,5.18
2023-01-13T18:12:29.840Z,5.51
2023-01-13T18:14:57.277Z,5.76
2023-01-13T18:17:24.742Z,5.79
2023-01-13T18:20:10.592Z,5.71
2023-01-13T18:22:56.419Z,5.66
2023-01-13T18:25:43.004Z,5.69
2023-01-13T18:28:10.487Z,5.60
2023-01-13T18:30:37.998Z,5.53
2023-01-13T18:33:05.391Z,5.54
2023-01-13T18:35:32.746Z,5.51
2023-01-13T18:38:00.130Z,5.32
2023-01-13T18:40:27.805Z,5.34
2023-01-13T18:42:55.609Z,5.41
2023-01-13T18:45:31.592Z,5.46
2023-01-13T18:48:02.188Z,5.38
2023-01-13T18:50:31.012Z,5.36
2023-01-13T18:52:58.432Z,4.89
2023-01-13T18:55:28.563Z,5.10
2023-01-13T18:57:56.452Z,5.08
2023-01-13T19:00:26.933Z,5.17
2023-01-13T19:05:35.026Z,4.60
2023-01-13T19:08:04.082Z,4.44
2023-01-13T19:10:35.409Z,4.56
2023-01-13T19:13:03.008Z,4.72
2023-01-13T19:15:30.767Z,4.83
2023-01-13T19:17:58.245Z,4.68
2023-01-13T19:20:25.929Z,4.77
2023-01-13T19:22:58.438Z,4.59
2023-01-13T19:25:28.407Z,4.57
2023-01-13T19:27:55.803Z,4.60
2023-01-13T19:30:23.387Z,4.66
2023-01-13T19:32:51.281Z,4.69
2023-01-13T19:35:19.959Z,4.59
2023-01-13T19:37:47.443Z,4.79
2023-01-13T19:40:15.792Z,4.75
2023-01-13T19:43:02.628Z,4.69
2023-01-13T19:45:32.220Z,4.48
2023-01-13T19:48:05.273Z,4.44
2023-01-13T19:50:39.715Z,4.37
2023-01-13T19:53:10.644Z,4.18
2023-01-13T19:55:44.001Z,3.92
2023-01-13T19:58:11.536Z,3.99
2023-01-13T20:00:46.811Z,4.23
2023-01-13T20:03:20.708Z,4.20
2023-01-13T20:05:48.335Z,4.40
2023-01-13T20:08:16.422Z,4.40
2023-01-13T20:10:45.963Z,4.42
2023-01-13T20:13:14.298Z,4.31
2023-01-13T20:15:42.460Z,4.42
2023-01-13T20:18:10.091Z,4.44
2023-01-13T20:20:37.776Z,4.52
2023-01-13T20:23:05.371Z,4.66
2023-01-13T20:25:32.906Z,4.52
2023-01-13T20:28:02.224Z,4.32
2023-01-13T20:30:29.836Z,3.69
2023-01-13T20:32:57.745Z,3.94
2023-01-13T20:35:30.984Z,4.27
2023-01-13T20:37:59.297Z,4.19
2023-01-13T20:40:27.710Z,4.30
2023-01-13T20:42:56.883Z,4.19
2023-01-13T20:45:26.162Z,4.22
2023-01-13T20:47:55.551Z,4.14
2023-01-13T20:50:24.758Z,4.44
2023-01-13T20:52:53.216Z,4.25
2023-01-13T20:55:22.671Z,3.90
2023-01-13T20:57:51.209Z,3.51
2023-01-13T21:00:22.830Z,3.48
2023-01-13T21:02:50.789Z,3.65
2023-01-13T21:05:20.230Z,3.84
2023-01-13T21:07:49.645Z,4.10
2023-01-13T21:10:20.131Z,4.08
2023-01-13T21:13:07.811Z,4.27
2023-01-13T21:15:40.489Z,3.75
2023-01-13T21:18:26.577Z,3.88
2023-01-13T21:21:11.545Z,3.58
2023-01-13T21:23:42.307Z,3.27
2023-01-13T21:26:11.322Z,3.46
2023-01-13T21:28:38.846Z,3.48
2023-01-13T21:31:08.755Z,3.32
2023-01-13T21:33:37.143Z,3.40
2023-01-13T21:36:15.113Z,3.45
2023-01-13T21:38:42.683Z,3.54
2023-01-13T21:41:13.028Z,3.30
2023-01-13T21:44:01.568Z,3.30
2023-01-13T21:46:47.376Z,3.26
2023-01-13T21:49:14.819Z,3.30
2023-01-13T21:51:43.908Z,3.49
2023-01-13T21:54:12.558Z,3.55
2023-01-13T21:56:39.967Z,3.34
2023-01-13T21:59:07.443Z,3.26
2023-01-13T22:01:34.997Z,3.21
2023-01-13T22:04:22.400Z,3.19
2023-01-13T22:06:49.973Z,3.30
2023-01-13T22:09:17.421Z,3.45
2023-01-13T22:11:44.864Z,3.35
2023-01-13T22:14:14.000Z,2.72
2023-01-13T22:16:49.141Z,2.97
2023-01-13T22:19:18.282Z,3.03
2023-01-13T22:21:45.792Z,2.99
2023-01-13T22:24:13.367Z,2.33
2023-01-13T22:26:40.965Z,2.55
2023-01-13T22:29:08.399Z,2.65
2023-01-13T22:31:35.875Z,2.77
2023-01-13T22:34:03.479Z,2.84
2023-01-13T22:36:31.012Z,2.88
2023-01-13T22:39:00.665Z,2.86
2023-01-13T22:41:28.250Z,2.88
2023-01-13T22:43:55.745Z,2.68
2023-01-13T22:46:23.643Z,2.66
2023-01-13T22:48:53.870Z,2.79
2023-01-13T22:51:22.906Z,2.69
2023-01-13T22:53:51.209Z,2.48
2023-01-13T22:56:21.480Z,2.71
2023-01-13T22:58:53.922Z,2.94
2023-01-13T23:01:21.983Z,2.97
2023-01-13T23:03:50.004Z,2.85
2023-01-13T23:06:19.419Z,2.40
2023-01-13T23:08:47.809Z,2.19
2023-01-13T23:11:17.323Z,2.36
2023-01-13T23:13:45.157Z,2.50
2023-01-13T23:16:15.606Z,2.45
2023-01-13T23:18:45.366Z,1.98
2023-01-13T23:21:15.857Z,2.20
2023-01-13T23:23:43.702Z,1.91
2023-01-13T23:26:12.306Z,2.10
2023-01-13T23:28:39.754Z,2.03
2023-01-13T23:31:08.334Z,2.11
2023-01-13T23:33:37.860Z,2.09
2023-01-13T23:36:07.332Z,2.24
2023-01-13T23:38:34.968Z,2.34
2023-01-13T23:41:06.677Z,1.61
2023-01-13T23:43:34.821Z,1.92
2023-01-13T23:46:06.066Z,2.02
2023-01-13T23:48:34.166Z,1.87
2023-01-13T23:51:04.656Z,1.98
2023-01-13T23:53:40.141Z,2.20
2023-01-13T23:56:13.710Z,2.05
2023-01-13T23:58:42.629Z,1.66
